Montgomery Center, Vermont
Current Conditions -  °F | °C
As of 2:15 PM on Thursday 18 Dec 2014 (Local Time) from KEFK Reporting Station
Overcast Overcast  
Wind Chill: 18°   Ceiling: 1300
Heat Index: 28°   Visibility: 10mi
Dew Point: 25°   Wind: 12mph
Humidity: 88%   Direction: 310°NW
Pressure: 29.79"   Gusts: 17mph
Location:  44.88°N, 72.6°W
Report Text: KEFK 181915Z AUTO 31010G15KT 10SM OVC013 M02/M04 A2979 RMK AO2 T10221040
Loading
Personal Weather Stations






























Interactive Weather Map New forecast layout! Learn more

10-Day Weather Forecast

Advertisements
Track Severe Weather on mobile